Dowelltown, Tennessee
Current Conditions -  °F | °C
As of 10:35 AM on Tuesday 27 Jan 2015 (Local Time) from KRNC Reporting Station
Overcast Overcast  
Wind Chill: 28°   Ceiling: 1400
Heat Index: 36°   Visibility: 10mi
Dew Point: 36°   Wind: 10mph
Humidity: 100%   Direction: 360°N
Pressure: 30.03"   Gusts: NA
Location:  36.02°N, 85.94°W
Report Text: KRNC 271635Z AUTO 36009KT 10SM OVC014 02/02 A3003 RMK
Loading
Personal Weather Stations






























Interactive Weather Map New forecast layout! Learn more

10-Day Weather Forecast

Advertisements
Track Severe Weather on mobile